sensor_id;sensor_type;location;lat;lon;timestamp;P1;durP1;ratioP1;P2;durP2;ratioP2
46086;SDS011;31824;49.648;8.640;2023-12-14T00:02:49;10.50;;;4.85;;
46086;SDS011;31824;49.648;8.640;2023-12-14T00:05:51;8.07;;;4.05;;
46086;SDS011;31824;49.648;8.640;2023-12-14T00:08:53;10.25;;;4.80;;
46086;SDS011;31824;49.648;8.640;2023-12-14T00:11:55;7.55;;;4.63;;
46086;SDS011;31824;49.648;8.640;2023-12-14T00:14:58;9.48;;;4.93;;
46086;SDS011;31824;49.648;8.640;2023-12-14T00:17:59;8.95;;;4.85;;
46086;SDS011;31824;49.648;8.640;2023-12-14T00:21:01;7.18;;;4.28;;
46086;SDS011;31824;49.648;8.640;2023-12-14T00:24:04;9.10;;;4.75;;
46086;SDS011;31824;49.648;8.640;2023-12-14T00:27:07;9.73;;;5.30;;
46086;SDS011;31824;49.648;8.640;2023-12-14T00:30:10;7.40;;;4.00;;
46086;SDS011;31824;49.648;8.640;2023-12-14T00:33:13;7.78;;;4.63;;
46086;SDS011;31824;49.648;8.640;2023-12-14T00:36:18;8.43;;;4.70;;
46086;SDS011;31824;49.648;8.640;2023-12-14T00:39:20;9.25;;;5.10;;
46086;SDS011;31824;49.648;8.640;2023-12-14T00:42:22;8.55;;;4.32;;
46086;SDS011;31824;49.648;8.640;2023-12-14T00:45:25;9.80;;;5.63;;
46086;SDS011;31824;49.648;8.640;2023-12-14T00:48:27;12.48;;;5.43;;
46086;SDS011;31824;49.648;8.640;2023-12-14T00:51:29;10.00;;;4.90;;
46086;SDS011;31824;49.648;8.640;2023-12-14T00:54:31;9.50;;;5.03;;
46086;SDS011;31824;49.648;8.640;2023-12-14T00:57:33;8.15;;;4.45;;
46086;SDS011;31824;49.648;8.640;2023-12-14T01:00:36;9.45;;;5.38;;
46086;SDS011;31824;49.648;8.640;2023-12-14T01:03:41;15.85;;;5.50;;
46086;SDS011;31824;49.648;8.640;2023-12-14T01:06:42;10.98;;;4.75;;
46086;SDS011;31824;49.648;8.640;2023-12-14T01:09:44;8.77;;;5.00;;
46086;SDS011;31824;49.648;8.640;2023-12-14T01:12:46;10.63;;;4.75;;
46086;SDS011;31824;49.648;8.640;2023-12-14T01:15:49;14.23;;;5.95;;
46086;SDS011;31824;49.648;8.640;2023-12-14T01:18:51;8.73;;;5.00;;
46086;SDS011;31824;49.648;8.640;2023-12-14T01:21:53;8.13;;;4.68;;
46086;SDS011;31824;49.648;8.640;2023-12-14T01:24:56;11.90;;;5.28;;
46086;SDS011;31824;49.648;8.640;2023-12-14T01:27:58;10.80;;;4.90;;
46086;SDS011;31824;49.648;8.640;2023-12-14T01:31:05;10.38;;;5.15;;
46086;SDS011;31824;49.648;8.640;2023-12-14T01:34:10;8.65;;;4.93;;
46086;SDS011;31824;49.648;8.640;2023-12-14T01:37:13;11.18;;;4.75;;
46086;SDS011;31824;49.648;8.640;2023-12-14T01:40:16;8.68;;;4.90;;
46086;SDS011;31824;49.648;8.640;2023-12-14T01:43:21;7.68;;;4.25;;
46086;SDS011;31824;49.648;8.640;2023-12-14T01:46:24;8.40;;;4.45;;
46086;SDS011;31824;49.648;8.640;2023-12-14T01:49:26;12.75;;;4.95;;
46086;SDS011;31824;49.648;8.640;2023-12-14T01:52:28;10.80;;;4.25;;
46086;SDS011;31824;49.648;8.640;2023-12-14T01:55:30;10.27;;;4.72;;
46086;SDS011;31824;49.648;8.640;2023-12-14T01:58:32;9.77;;;4.97;;
46086;SDS011;31824;49.648;8.640;2023-12-14T02:01:36;10.38;;;4.85;;
46086;SDS011;31824;49.648;8.640;2023-12-14T02:04:41;8.40;;;4.45;;
46086;SDS011;31824;49.648;8.640;2023-12-14T02:07:43;9.32;;;4.88;;
46086;SDS011;31824;49.648;8.640;2023-12-14T02:10:44;8.40;;;4.60;;
46086;SDS011;31824;49.648;8.640;2023-12-14T02:13:46;11.85;;;4.57;;
46086;SDS011;31824;49.648;8.640;2023-12-14T02:16:50;8.48;;;3.85;;
46086;SDS011;31824;49.648;8.640;2023-12-14T02:19:52;8.82;;;4.78;;
46086;SDS011;31824;49.648;8.640;2023-12-14T02:22:55;10.02;;;4.72;;
46086;SDS011;31824;49.648;8.640;2023-12-14T02:25:57;8.43;;;4.47;;
46086;SDS011;31824;49.648;8.640;2023-12-14T02:28:59;12.07;;;4.30;;
46086;SDS011;31824;49.648;8.640;2023-12-14T02:32:01;12.63;;;4.18;;
46086;SDS011;31824;49.648;8.640;2023-12-14T02:35:03;11.27;;;4.20;;
46086;SDS011;31824;49.648;8.640;2023-12-14T02:38:07;8.63;;;4.53;;
46086;SDS011;31824;49.648;8.640;2023-12-14T02:41:10;8.65;;;5.03;;
46086;SDS011;31824;49.648;8.640;2023-12-14T02:44:11;9.52;;;4.60;;
46086;SDS011;31824;49.648;8.640;2023-12-14T02:47:13;8.68;;;4.13;;
46086;SDS011;31824;49.648;8.640;2023-12-14T02:50:15;8.77;;;4.35;;
46086;SDS011;31824;49.648;8.640;2023-12-14T02:53:18;9.45;;;4.55;;
46086;SDS011;31824;49.648;8.640;2023-12-14T02:56:21;7.97;;;4.10;;
46086;SDS011;31824;49.648;8.640;2023-12-14T02:59:22;9.13;;;4.63;;
46086;SDS011;31824;49.648;8.640;2023-12-14T03:02:24;11.05;;;4.20;;
46086;SDS011;31824;49.648;8.640;2023-12-14T03:05:26;8.52;;;4.07;;
46086;SDS011;31824;49.648;8.640;2023-12-14T03:08:29;9.27;;;4.50;;
46086;SDS011;31824;49.648;8.640;2023-12-14T03:11:31;8.60;;;3.97;;
46086;SDS011;31824;49.648;8.640;2023-12-14T03:14:33;9.77;;;4.78;;
46086;SDS011;31824;49.648;8.640;2023-12-14T03:17:35;7.90;;;4.00;;
46086;SDS011;31824;49.648;8.640;2023-12-14T03:20:42;9.70;;;4.25;;
46086;SDS011;31824;49.648;8.640;2023-12-14T03:23:45;8.82;;;4.45;;
46086;SDS011;31824;49.648;8.640;2023-12-14T03:26:50;10.60;;;4.97;;
46086;SDS011;31824;49.648;8.640;2023-12-14T03:29:51;9.55;;;4.30;;
46086;SDS011;31824;49.648;8.640;2023-12-14T03:32:53;15.63;;;4.82;;
46086;SDS011;31824;49.648;8.640;2023-12-14T03:35:55;10.02;;;4.32;;
46086;SDS011;31824;49.648;8.640;2023-12-14T03:38:59;10.35;;;4.13;;
46086;SDS011;31824;49.648;8.640;2023-12-14T03:42:01;8.38;;;3.88;;
46086;SDS011;31824;49.648;8.640;2023-12-14T03:45:03;9.40;;;4.95;;
46086;SDS011;31824;49.648;8.640;2023-12-14T03:48:05;13.98;;;4.22;;
46086;SDS011;31824;49.648;8.640;2023-12-14T03:51:07;7.93;;;3.63;;
46086;SDS011;31824;49.648;8.640;2023-12-14T03:54:10;11.05;;;4.57;;
46086;SDS011;31824;49.648;8.640;2023-12-14T03:57:14;8.75;;;4.45;;
46086;SDS011;31824;49.648;8.640;2023-12-14T04:00:16;24.13;;;5.10;;
46086;SDS011;31824;49.648;8.640;2023-12-14T04:03:18;8.85;;;4.32;;
46086;SDS011;31824;49.648;8.640;2023-12-14T04:06:20;10.82;;;4.30;;
46086;SDS011;31824;49.648;8.640;2023-12-14T04:09:23;9.00;;;4.05;;
46086;SDS011;31824;49.648;8.640;2023-12-14T04:12:25;8.73;;;3.85;;
46086;SDS011;31824;49.648;8.640;2023-12-14T04:15:27;9.18;;;4.63;;
46086;SDS011;31824;49.648;8.640;2023-12-14T04:18:29;8.38;;;4.60;;
46086;SDS011;31824;49.648;8.640;2023-12-14T04:21:31;9.63;;;4.65;;
46086;SDS011;31824;49.648;8.640;2023-12-14T04:24:34;11.13;;;4.65;;
46086;SDS011;31824;49.648;8.640;2023-12-14T04:27:36;8.38;;;4.68;;
46086;SDS011;31824;49.648;8.640;2023-12-14T04:30:38;9.27;;;4.63;;
46086;SDS011;31824;49.648;8.640;2023-12-14T04:33:42;8.52;;;4.25;;
46086;SDS011;31824;49.648;8.640;2023-12-14T04:36:52;7.80;;;3.88;;
46086;SDS011;31824;49.648;8.640;2023-12-14T04:40:00;8.57;;;3.85;;
46086;SDS011;31824;49.648;8.640;2023-12-14T04:43:02;8.95;;;4.60;;
46086;SDS011;31824;49.648;8.640;2023-12-14T04:46:04;9.85;;;5.03;;
46086;SDS011;31824;49.648;8.640;2023-12-14T04:49:07;9.40;;;4.25;;
46086;SDS011;31824;49.648;8.640;2023-12-14T04:52:09;10.02;;;4.70;;
46086;SDS011;31824;49.648;8.640;2023-12-14T04:55:13;7.93;;;4.22;;
46086;SDS011;31824;49.648;8.640;2023-12-14T04:58:15;9.52;;;4.25;;
46086;SDS011;31824;49.648;8.640;2023-12-14T05:01:16;9.30;;;4.55;;
46086;SDS011;31824;49.648;8.640;2023-12-14T05:04:18;9.43;;;4.03;;
46086;SDS011;31824;49.648;8.640;2023-12-14T05:07:20;9.13;;;4.38;;
46086;SDS011;31824;49.648;8.640;2023-12-14T05:10:25;10.27;;;4.93;;
46086;SDS011;31824;49.648;8.640;2023-12-14T05:13:27;12.35;;;5.05;;
46086;SDS011;31824;49.648;8.640;2023-12-14T05:16:29;12.20;;;5.43;;
46086;SDS011;31824;49.648;8.640;2023-12-14T05:19:32;10.73;;;4.60;;
46086;SDS011;31824;49.648;8.640;2023-12-14T05:22:38;8.95;;;4.53;;
46086;SDS011;31824;49.648;8.640;2023-12-14T05:25:42;14.07;;;4.88;;
46086;SDS011;31824;49.648;8.640;2023-12-14T05:28:44;11.25;;;4.40;;
46086;SDS011;31824;49.648;8.640;2023-12-14T05:31:47;10.23;;;4.70;;
46086;SDS011;31824;49.648;8.640;2023-12-14T05:34:48;9.57;;;4.68;;
46086;SDS011;31824;49.648;8.640;2023-12-14T05:37:50;10.60;;;5.57;;
46086;SDS011;31824;49.648;8.640;2023-12-14T05:40:54;9.55;;;4.90;;
46086;SDS011;31824;49.648;8.640;2023-12-14T05:43:56;9.35;;;4.18;;
46086;SDS011;31824;49.648;8.640;2023-12-14T05:46:58;8.52;;;4.45;;
46086;SDS011;31824;49.648;8.640;2023-12-14T05:50:00;12.93;;;5.13;;
46086;SDS011;31824;49.648;8.640;2023-12-14T05:53:02;10.93;;;5.13;;
46086;SDS011;31824;49.648;8.640;2023-12-14T05:56:06;10.55;;;5.38;;
46086;SDS011;31824;49.648;8.640;2023-12-14T05:59:08;8.80;;;4.40;;
46086;SDS011;31824;49.648;8.640;2023-12-14T06:02:10;9.90;;;5.28;;
46086;SDS011;31824;49.648;8.640;2023-12-14T06:05:12;14.07;;;5.47;;
46086;SDS011;31824;49.648;8.640;2023-12-14T06:08:14;9.18;;;5.10;;
46086;SDS011;31824;49.648;8.640;2023-12-14T06:11:18;15.77;;;6.30;;
46086;SDS011;31824;49.648;8.640;2023-12-14T06:14:21;15.15;;;6.60;;
46086;SDS011;31824;49.648;8.640;2023-12-14T06:17:22;11.88;;;5.82;;
46086;SDS011;31824;49.648;8.640;2023-12-14T06:20:27;14.18;;;5.63;;
46086;SDS011;31824;49.648;8.640;2023-12-14T06:26:57;12.60;;;5.70;;
46086;SDS011;31824;49.648;8.640;2023-12-14T06:29:59;14.18;;;5.43;;
46086;SDS011;31824;49.648;8.640;2023-12-14T06:33:01;9.60;;;5.28;;
46086;SDS011;31824;49.648;8.640;2023-12-14T06:36:06;11.10;;;5.43;;
46086;SDS011;31824;49.648;8.640;2023-12-14T06:39:09;13.15;;;5.57;;
46086;SDS011;31824;49.648;8.640;2023-12-14T06:42:13;12.43;;;5.65;;
46086;SDS011;31824;49.648;8.640;2023-12-14T06:45:15;12.55;;;5.65;;
46086;SDS011;31824;49.648;8.640;2023-12-14T06:48:17;13.32;;;6.18;;
46086;SDS011;31824;49.648;8.640;2023-12-14T06:51:19;13.18;;;5.53;;
46086;SDS011;31824;49.648;8.640;2023-12-14T06:54:20;12.10;;;6.03;;
46086;SDS011;31824;49.648;8.640;2023-12-14T06:57:24;11.57;;;5.53;;
46086;SDS011;31824;49.648;8.640;2023-12-14T07:00:28;9.15;;;4.95;;
46086;SDS011;31824;49.648;8.640;2023-12-14T07:03:31;15.57;;;5.50;;
46086;SDS011;31824;49.648;8.640;2023-12-14T07:06:35;8.68;;;4.32;;
46086;SDS011;31824;49.648;8.640;2023-12-14T07:09:37;10.95;;;4.50;;
46086;SDS011;31824;49.648;8.640;2023-12-14T07:12:40;10.15;;;4.57;;
46086;SDS011;31824;49.648;8.640;2023-12-14T07:15:42;17.13;;;4.43;;
46086;SDS011;31824;49.648;8.640;2023-12-14T07:18:45;8.48;;;4.25;;
46086;SDS011;31824;49.648;8.640;2023-12-14T07:21:47;8.45;;;3.95;;
46086;SDS011;31824;49.648;8.640;2023-12-14T07:24:49;7.85;;;3.80;;
46086;SDS011;31824;49.648;8.640;2023-12-14T07:28:01;7.40;;;3.78;;
46086;SDS011;31824;49.648;8.640;2023-12-14T07:31:03;12.20;;;3.97;;
46086;SDS011;31824;49.648;8.640;2023-12-14T07:34:06;9.90;;;4.55;;
46086;SDS011;31824;49.648;8.640;2023-12-14T07:37:08;7.35;;;3.60;;
46086;SDS011;31824;49.648;8.640;2023-12-14T07:40:10;8.93;;;4.00;;
46086;SDS011;31824;49.648;8.640;2023-12-14T07:43:13;7.97;;;3.63;;
46086;SDS011;31824;49.648;8.640;2023-12-14T07:46:15;11.77;;;4.38;;
46086;SDS011;31824;49.648;8.640;2023-12-14T07:49:17;10.27;;;4.68;;
46086;SDS011;31824;49.648;8.640;2023-12-14T07:52:23;12.35;;;5.05;;
46086;SDS011;31824;49.648;8.640;2023-12-14T07:55:25;8.40;;;4.80;;
46086;SDS011;31824;49.648;8.640;2023-12-14T07:58:29;10.05;;;5.22;;
46086;SDS011;31824;49.648;8.640;2023-12-14T08:01:31;11.63;;;5.13;;
46086;SDS011;31824;49.648;8.640;2023-12-14T08:04:33;12.07;;;5.18;;
46086;SDS011;31824;49.648;8.640;2023-12-14T08:07:35;10.88;;;6.18;;
46086;SDS011;31824;49.648;8.640;2023-12-14T08:10:36;9.88;;;5.68;;
46086;SDS011;31824;49.648;8.640;2023-12-14T08:13:40;13.25;;;6.55;;
46086;SDS011;31824;49.648;8.640;2023-12-14T08:16:42;14.70;;;6.97;;
46086;SDS011;31824;49.648;8.640;2023-12-14T08:19:44;17.08;;;7.45;;
46086;SDS011;31824;49.648;8.640;2023-12-14T08:22:46;14.98;;;6.95;;
46086;SDS011;31824;49.648;8.640;2023-12-14T08:25:47;14.70;;;6.78;;
46086;SDS011;31824;49.648;8.640;2023-12-14T08:28:51;16.17;;;7.03;;
46086;SDS011;31824;49.648;8.640;2023-12-14T08:31:53;15.00;;;6.03;;
46086;SDS011;31824;49.648;8.640;2023-12-14T08:34:58;15.48;;;6.53;;
46086;SDS011;31824;49.648;8.640;2023-12-14T08:38:00;11.57;;;6.28;;
46086;SDS011;31824;49.648;8.640;2023-12-14T08:41:05;12.18;;;6.03;;
46086;SDS011;31824;49.648;8.640;2023-12-14T08:44:09;10.38;;;5.65;;
46086;SDS011;31824;49.648;8.640;2023-12-14T08:47:11;11.88;;;6.35;;
46086;SDS011;31824;49.648;8.640;2023-12-14T08:50:13;10.82;;;6.43;;
46086;SDS011;31824;49.648;8.640;2023-12-14T08:53:14;12.40;;;6.13;;
46086;SDS011;31824;49.648;8.640;2023-12-14T08:56:16;11.70;;;6.60;;
46086;SDS011;31824;49.648;8.640;2023-12-14T08:59:20;14.25;;;6.03;;
46086;SDS011;31824;49.648;8.640;2023-12-14T09:02:22;13.93;;;5.88;;
46086;SDS011;31824;49.648;8.640;2023-12-14T09:05:24;11.35;;;6.20;;
46086;SDS011;31824;49.648;8.640;2023-12-14T09:08:26;12.13;;;6.10;;
46086;SDS011;31824;49.648;8.640;2023-12-14T09:11:27;9.85;;;5.13;;
46086;SDS011;31824;49.648;8.640;2023-12-14T09:14:31;12.57;;;6.03;;
46086;SDS011;31824;49.648;8.640;2023-12-14T09:17:33;14.75;;;5.28;;
46086;SDS011;31824;49.648;8.640;2023-12-14T09:20:38;11.88;;;5.22;;
46086;SDS011;31824;49.648;8.640;2023-12-14T09:23:44;12.13;;;6.20;;
46086;SDS011;31824;49.648;8.640;2023-12-14T09:26:46;9.77;;;5.60;;
46086;SDS011;31824;49.648;8.640;2023-12-14T09:29:49;11.60;;;5.97;;
46086;SDS011;31824;49.648;8.640;2023-12-14T09:32:51;11.13;;;5.90;;
46086;SDS011;31824;49.648;8.640;2023-12-14T09:35:56;12.18;;;6.47;;
46086;SDS011;31824;49.648;8.640;2023-12-14T09:38:58;11.23;;;5.55;;
46086;SDS011;31824;49.648;8.640;2023-12-14T09:42:01;11.93;;;6.63;;
46086;SDS011;31824;49.648;8.640;2023-12-14T09:45:07;15.38;;;5.82;;
46086;SDS011;31824;49.648;8.640;2023-12-14T09:48:10;13.32;;;6.18;;
46086;SDS011;31824;49.648;8.640;2023-12-14T09:51:13;11.35;;;5.65;;
46086;SDS011;31824;49.648;8.640;2023-12-14T09:54:19;17.13;;;5.50;;
46086;SDS011;31824;49.648;8.640;2023-12-14T09:57:21;17.10;;;6.82;;
46086;SDS011;31824;49.648;8.640;2023-12-14T10:00:33;10.88;;;5.45;;
46086;SDS011;31824;49.648;8.640;2023-12-14T10:03:36;12.20;;;5.25;;
46086;SDS011;31824;49.648;8.640;2023-12-14T10:06:38;11.50;;;5.47;;
46086;SDS011;31824;49.648;8.640;2023-12-14T10:09:41;10.88;;;5.68;;
46086;SDS011;31824;49.648;8.640;2023-12-14T10:12:52;11.48;;;5.60;;
46086;SDS011;31824;49.648;8.640;2023-12-14T10:15:56;11.48;;;5.55;;
46086;SDS011;31824;49.648;8.640;2023-12-14T10:18:58;9.75;;;4.47;;
46086;SDS011;31824;49.648;8.640;2023-12-14T10:22:00;8.63;;;4.25;;
46086;SDS011;31824;49.648;8.640;2023-12-14T10:25:03;10.27;;;5.03;;
46086;SDS011;31824;49.648;8.640;2023-12-14T10:28:06;10.43;;;4.53;;
46086;SDS011;31824;49.648;8.640;2023-12-14T10:31:10;10.60;;;5.10;;
46086;SDS011;31824;49.648;8.640;2023-12-14T10:37:16;8.63;;;4.53;;
46086;SDS011;31824;49.648;8.640;2023-12-14T10:40:20;9.32;;;4.60;;
46086;SDS011;31824;49.648;8.640;2023-12-14T10:43:22;11.70;;;4.70;;
46086;SDS011;31824;49.648;8.640;2023-12-14T10:46:47;10.93;;;5.25;;
46086;SDS011;31824;49.648;8.640;2023-12-14T10:49:52;9.30;;;3.97;;
46086;SDS011;31824;49.648;8.640;2023-12-14T10:52:55;8.52;;;4.63;;
46086;SDS011;31824;49.648;8.640;2023-12-14T10:55:59;10.05;;;4.45;;
46086;SDS011;31824;49.648;8.640;2023-12-14T10:59:07;11.27;;;4.38;;
46086;SDS011;31824;49.648;8.640;2023-12-14T11:02:14;11.18;;;4.70;;
46086;SDS011;31824;49.648;8.640;2023-12-14T11:05:16;8.52;;;4.15;;
46086;SDS011;31824;49.648;8.640;2023-12-14T11:08:24;10.52;;;4.50;;
46086;SDS011;31824;49.648;8.640;2023-12-14T11:11:28;11.15;;;4.93;;
46086;SDS011;31824;49.648;8.640;2023-12-14T11:14:30;8.80;;;4.75;;
46086;SDS011;31824;49.648;8.640;2023-12-14T11:17:34;8.52;;;4.60;;
46086;SDS011;31824;49.648;8.640;2023-12-14T11:20:47;9.57;;;4.15;;
46086;SDS011;31824;49.648;8.640;2023-12-14T11:23:50;10.35;;;4.65;;
46086;SDS011;31824;49.648;8.640;2023-12-14T11:26:54;11.10;;;4.82;;
46086;SDS011;31824;49.648;8.640;2023-12-14T11:29:56;8.52;;;4.68;;
46086;SDS011;31824;49.648;8.640;2023-12-14T11:33:00;9.55;;;4.80;;
46086;SDS011;31824;49.648;8.640;2023-12-14T11:36:03;8.27;;;4.15;;
46086;SDS011;31824;49.648;8.640;2023-12-14T11:39:05;9.27;;;4.43;;
46086;SDS011;31824;49.648;8.640;2023-12-14T11:42:07;10.55;;;4.78;;
46086;SDS011;31824;49.648;8.640;2023-12-14T11:45:11;11.90;;;4.60;;
46086;SDS011;31824;49.648;8.640;2023-12-14T11:50:09;9.32;;;4.80;;
46086;SDS011;31824;49.648;8.640;2023-12-14T11:56:16;8.07;;;3.90;;
46086;SDS011;31824;49.648;8.640;2023-12-14T11:59:19;9.05;;;3.75;;
46086;SDS011;31824;49.648;8.640;2023-12-14T12:02:23;9.20;;;3.70;;
46086;SDS011;31824;49.648;8.640;2023-12-14T12:05:35;9.40;;;4.05;;
46086;SDS011;31824;49.648;8.640;2023-12-14T12:08:41;8.15;;;3.78;;
46086;SDS011;31824;49.648;8.640;2023-12-14T12:11:44;9.63;;;3.95;;
46086;SDS011;31824;49.648;8.640;2023-12-14T12:14:47;9.25;;;3.88;;
46086;SDS011;31824;49.648;8.640;2023-12-14T12:17:51;7.88;;;3.65;;
46086;SDS011;31824;49.648;8.640;2023-12-14T12:20:54;8.05;;;3.20;;
46086;SDS011;31824;49.648;8.640;2023-12-14T12:23:55;6.65;;;2.67;;
46086;SDS011;31824;49.648;8.640;2023-12-14T12:26:57;5.80;;;2.60;;
46086;SDS011;31824;49.648;8.640;2023-12-14T12:29:59;7.13;;;2.58;;
46086;SDS011;31824;49.648;8.640;2023-12-14T12:33:01;4.80;;;1.90;;
46086;SDS011;31824;49.648;8.640;2023-12-14T12:36:05;9.05;;;3.25;;
46086;SDS011;31824;49.648;8.640;2023-12-14T12:39:09;5.88;;;2.83;;
46086;SDS011;31824;49.648;8.640;2023-12-14T12:42:11;2.90;;;1.23;;
46086;SDS011;31824;49.648;8.640;2023-12-14T12:45:12;6.75;;;2.53;;
46086;SDS011;31824;49.648;8.640;2023-12-14T12:48:14;5.63;;;2.05;;
46086;SDS011;31824;49.648;8.640;2023-12-14T12:51:18;6.65;;;2.65;;
46086;SDS011;31824;49.648;8.640;2023-12-14T12:54:20;5.35;;;2.45;;
46086;SDS011;31824;49.648;8.640;2023-12-14T12:57:21;5.72;;;3.08;;
46086;SDS011;31824;49.648;8.640;2023-12-14T13:00:23;6.63;;;2.85;;
46086;SDS011;31824;49.648;8.640;2023-12-14T13:03:25;6.32;;;2.80;;
46086;SDS011;31824;49.648;8.640;2023-12-14T13:06:28;5.22;;;2.63;;
46086;SDS011;31824;49.648;8.640;2023-12-14T13:10:44;5.53;;;2.60;;
46086;SDS011;31824;49.648;8.640;2023-12-14T13:13:47;6.57;;;2.55;;
46086;SDS011;31824;49.648;8.640;2023-12-14T13:16:49;6.03;;;2.47;;
46086;SDS011;31824;49.648;8.640;2023-12-14T13:19:51;5.30;;;2.28;;
46086;SDS011;31824;49.648;8.640;2023-12-14T13:22:54;5.07;;;2.10;;
46086;SDS011;31824;49.648;8.640;2023-12-14T13:25:57;5.85;;;2.60;;
46086;SDS011;31824;49.648;8.640;2023-12-14T13:28:59;6.13;;;2.25;;
46086;SDS011;31824;49.648;8.640;2023-12-14T13:32:01;7.45;;;2.70;;
46086;SDS011;31824;49.648;8.640;2023-12-14T13:35:03;5.55;;;2.33;;
46086;SDS011;31824;49.648;8.640;2023-12-14T13:38:06;5.20;;;2.10;;
46086;SDS011;31824;49.648;8.640;2023-12-14T13:41:10;6.28;;;2.35;;
46086;SDS011;31824;49.648;8.640;2023-12-14T13:44:12;4.75;;;2.22;;
46086;SDS011;31824;49.648;8.640;2023-12-14T13:47:13;5.30;;;2.30;;
46086;SDS011;31824;49.648;8.640;2023-12-14T13:50:15;4.95;;;2.28;;
46086;SDS011;31824;49.648;8.640;2023-12-14T13:53:17;6.43;;;2.60;;
46086;SDS011;31824;49.648;8.640;2023-12-14T13:56:21;6.05;;;2.35;;
46086;SDS011;31824;49.648;8.640;2023-12-14T13:59:23;7.43;;;2.55;;
46086;SDS011;31824;49.648;8.640;2023-12-14T14:02:25;5.00;;;2.47;;
46086;SDS011;31824;49.648;8.640;2023-12-14T14:05:30;4.32;;;2.20;;
46086;SDS011;31824;49.648;8.640;2023-12-14T14:08:32;6.43;;;2.67;;
46086;SDS011;31824;49.648;8.640;2023-12-14T14:11:35;7.43;;;2.78;;
46086;SDS011;31824;49.648;8.640;2023-12-14T14:14:38;3.55;;;1.50;;
46086;SDS011;31824;49.648;8.640;2023-12-14T14:17:40;7.60;;;2.67;;
46086;SDS011;31824;49.648;8.640;2023-12-14T14:20:42;6.30;;;2.40;;
46086;SDS011;31824;49.648;8.640;2023-12-14T14:23:44;7.82;;;3.05;;
46086;SDS011;31824;49.648;8.640;2023-12-14T14:26:47;5.10;;;2.10;;
46086;SDS011;31824;49.648;8.640;2023-12-14T14:29:49;5.93;;;2.10;;
46086;SDS011;31824;49.648;8.640;2023-12-14T14:32:51;6.63;;;2.42;;
46086;SDS011;31824;49.648;8.640;2023-12-14T14:35:53;6.82;;;1.95;;
46086;SDS011;31824;49.648;8.640;2023-12-14T14:38:55;6.10;;;1.92;;
46086;SDS011;31824;49.648;8.640;2023-12-14T14:42:00;4.90;;;1.90;;
46086;SDS011;31824;49.648;8.640;2023-12-14T14:45:02;5.90;;;2.40;;
46086;SDS011;31824;49.648;8.640;2023-12-14T14:48:07;7.05;;;3.30;;
46086;SDS011;31824;49.648;8.640;2023-12-14T14:51:10;5.82;;;2.30;;
46086;SDS011;31824;49.648;8.640;2023-12-14T14:54:12;7.22;;;2.03;;
46086;SDS011;31824;49.648;8.640;2023-12-14T14:57:15;8.05;;;2.97;;
46086;SDS011;31824;49.648;8.640;2023-12-14T15:00:17;6.25;;;2.50;;
46086;SDS011;31824;49.648;8.640;2023-12-14T15:03:20;9.02;;;2.85;;
46086;SDS011;31824;49.648;8.640;2023-12-14T15:06:23;6.18;;;2.33;;
46086;SDS011;31824;49.648;8.640;2023-12-14T15:09:25;4.75;;;1.83;;
46086;SDS011;31824;49.648;8.640;2023-12-14T15:12:28;5.35;;;2.45;;
46086;SDS011;31824;49.648;8.640;2023-12-14T15:15:30;4.70;;;1.98;;
46086;SDS011;31824;49.648;8.640;2023-12-14T15:18:33;3.42;;;1.45;;
46086;SDS011;31824;49.648;8.640;2023-12-14T15:21:42;6.95;;;2.15;;
46086;SDS011;31824;49.648;8.640;2023-12-14T15:24:44;5.85;;;2.38;;
46086;SDS011;31824;49.648;8.640;2023-12-14T15:27:48;7.55;;;1.95;;
46086;SDS011;31824;49.648;8.640;2023-12-14T15:30:50;4.80;;;2.15;;
46086;SDS011;31824;49.648;8.640;2023-12-14T15:33:52;5.80;;;2.38;;
46086;SDS011;31824;49.648;8.640;2023-12-14T15:36:54;6.55;;;2.30;;
46086;SDS011;31824;49.648;8.640;2023-12-14T15:39:55;6.05;;;2.22;;
46086;SDS011;31824;49.648;8.640;2023-12-14T15:42:58;5.13;;;2.42;;
46086;SDS011;31824;49.648;8.640;2023-12-14T15:46:00;7.45;;;2.58;;
46086;SDS011;31824;49.648;8.640;2023-12-14T15:49:02;5.57;;;2.47;;
46086;SDS011;31824;49.648;8.640;2023-12-14T15:52:05;6.53;;;1.77;;
46086;SDS011;31824;49.648;8.640;2023-12-14T15:55:07;7.00;;;2.78;;
46086;SDS011;31824;49.648;8.640;2023-12-14T15:58:10;6.93;;;2.35;;
46086;SDS011;31824;49.648;8.640;2023-12-14T16:01:12;5.10;;;2.33;;
46086;SDS011;31824;49.648;8.640;2023-12-14T16:04:16;6.88;;;2.35;;
46086;SDS011;31824;49.648;8.640;2023-12-14T16:07:17;5.70;;;2.63;;
46086;SDS011;31824;49.648;8.640;2023-12-14T16:10:19;5.03;;;2.22;;
46086;SDS011;31824;49.648;8.640;2023-12-14T16:13:22;5.20;;;2.33;;
46086;SDS011;31824;49.648;8.640;2023-12-14T16:16:24;5.60;;;2.05;;
46086;SDS011;31824;49.648;8.640;2023-12-14T16:19:26;5.55;;;2.30;;
46086;SDS011;31824;49.648;8.640;2023-12-14T16:22:27;5.53;;;2.35;;
46086;SDS011;31824;49.648;8.640;2023-12-14T16:25:29;6.13;;;2.75;;
46086;SDS011;31824;49.648;8.640;2023-12-14T16:28:34;5.40;;;2.28;;
46086;SDS011;31824;49.648;8.640;2023-12-14T16:31:39;4.65;;;1.85;;
46086;SDS011;31824;49.648;8.640;2023-12-14T16:34:42;5.70;;;2.42;;
46086;SDS011;31824;49.648;8.640;2023-12-14T16:37:44;4.65;;;1.77;;
46086;SDS011;31824;49.648;8.640;2023-12-14T16:40:46;5.47;;;1.70;;
46086;SDS011;31824;49.648;8.640;2023-12-14T16:43:49;4.38;;;1.85;;
46086;SDS011;31824;49.648;8.640;2023-12-14T16:46:51;5.05;;;2.13;;
46086;SDS011;31824;49.648;8.640;2023-12-14T16:49:53;5.03;;;2.28;;
46086;SDS011;31824;49.648;8.640;2023-12-14T16:52:55;5.68;;;2.45;;
46086;SDS011;31824;49.648;8.640;2023-12-14T16:55:57;4.65;;;1.67;;
46086;SDS011;31824;49.648;8.640;2023-12-14T16:59:03;4.95;;;1.40;;
46086;SDS011;31824;49.648;8.640;2023-12-14T17:02:05;4.70;;;1.58;;
46086;SDS011;31824;49.648;8.640;2023-12-14T17:05:08;3.30;;;1.10;;
46086;SDS011;31824;49.648;8.640;2023-12-14T17:08:10;2.85;;;1.20;;
46086;SDS011;31824;49.648;8.640;2023-12-14T17:11:12;3.50;;;1.23;;
46086;SDS011;31824;49.648;8.640;2023-12-14T17:14:16;2.22;;;0.68;;
46086;SDS011;31824;49.648;8.640;2023-12-14T17:17:20;3.40;;;1.35;;
46086;SDS011;31824;49.648;8.640;2023-12-14T17:20:23;3.55;;;1.40;;
46086;SDS011;31824;49.648;8.640;2023-12-14T17:23:24;3.92;;;1.67;;
46086;SDS011;31824;49.648;8.640;2023-12-14T17:26:27;5.35;;;2.13;;
46086;SDS011;31824;49.648;8.640;2023-12-14T17:29:31;5.07;;;2.13;;
46086;SDS011;31824;49.648;8.640;2023-12-14T17:32:33;4.15;;;1.92;;
46086;SDS011;31824;49.648;8.640;2023-12-14T17:35:36;2.75;;;1.20;;
46086;SDS011;31824;49.648;8.640;2023-12-14T17:38:38;4.18;;;1.45;;
46086;SDS011;31824;49.648;8.640;2023-12-14T17:41:39;2.00;;;1.08;;
46086;SDS011;31824;49.648;8.640;2023-12-14T17:44:42;3.15;;;1.33;;
46086;SDS011;31824;49.648;8.640;2023-12-14T17:47:44;3.22;;;1.42;;
46086;SDS011;31824;49.648;8.640;2023-12-14T17:50:46;3.63;;;1.35;;
46086;SDS011;31824;49.648;8.640;2023-12-14T17:53:48;4.47;;;1.80;;
46086;SDS011;31824;49.648;8.640;2023-12-14T17:56:49;4.10;;;1.27;;
46086;SDS011;31824;49.648;8.640;2023-12-14T17:59:52;5.28;;;1.67;;
46086;SDS011;31824;49.648;8.640;2023-12-14T18:02:54;6.05;;;2.13;;
46086;SDS011;31824;49.648;8.640;2023-12-14T18:05:56;8.10;;;2.10;;
46086;SDS011;31824;49.648;8.640;2023-12-14T18:08:58;2.65;;;1.40;;
46086;SDS011;31824;49.648;8.640;2023-12-14T18:12:00;5.22;;;1.80;;
46086;SDS011;31824;49.648;8.640;2023-12-14T18:15:03;4.63;;;1.73;;
46086;SDS011;31824;49.648;8.640;2023-12-14T18:18:06;2.97;;;0.98;;
46086;SDS011;31824;49.648;8.640;2023-12-14T18:21:08;2.75;;;1.15;;
46086;SDS011;31824;49.648;8.640;2023-12-14T18:24:09;2.85;;;1.33;;
46086;SDS011;31824;49.648;8.640;2023-12-14T18:27:11;4.78;;;1.90;;
46086;SDS011;31824;49.648;8.640;2023-12-14T18:30:15;5.38;;;1.67;;